SNVC weather

Viçosa Airport
Viçosa, Minas Gerais, Brazil

Public forecast

Using degrees Celsius for public forecast. Weather courtesy of forecast.io.

METAR (pilot weather report)

Report is more than 2 hours old.

Closest report is Major Brigadeiro Doorgal Borges Airport, 60.3 nm (111.7 km) WSW. Retrieved 2019/09/15 23:00 UTC (4 hours ago):

SBBQ 152300Z 11002KT CAVOK 17/15 Q1025

TAF (pilot weather forecast)

Forecast is more than 12 hours old.

Closest forecast is Pampulha - Carlos Drummond de Andrade Airport, 82.3 nm (152.4 km) NW. Retrieved 2012/03/26 18:12 UTC (7 years ago):

TAF SBBH 261639Z 2618/2706 09005KT 9999 SCT030 TX28/2618Z TN20/2705Z PROB30 2619/2624 8000 TSRA BKN035 FEW045CB RMK PGG